Tatamy, Pennsylvania
Current Conditions -  °F | °C
As of 1:51 PM on Tuesday 27 Jan 2015 (Local Time) from KABE Reporting Station
Overcast Overcast  
Wind Chill: 16°   Ceiling: 5000
Heat Index: 28°   Visibility: 10mi
Dew Point: 10°   Wind: 16mph
Humidity: 47%   Direction: 320°NW
Pressure: 29.71"   Gusts: 23mph
Location:  40.74°N, 75.26°W
Report Text: KABE 271851Z 32014G20KT 10SM BKN050 BKN065 OVC075 M02/M12 A2971 RMK AO2 SLP067 T10221122
Loading
Personal Weather Stations






























Interactive Weather Map New forecast layout! Learn more

10-Day Weather Forecast

Advertisements
Track Severe Weather on mobile